createdAt,value
2018-06-16T00:01:27.661Z,4.70
2018-06-16T00:03:57.057Z,5.40
2018-06-16T00:06:25.977Z,5.67
2018-06-16T00:08:55.559Z,5.37
2018-06-16T00:11:24.479Z,5.23
2018-06-16T00:13:53.512Z,5.10
2018-06-16T00:16:22.425Z,4.70
2018-06-16T00:18:51.331Z,5.10
2018-06-16T00:21:20.272Z,5.00
2018-06-16T00:23:49.188Z,5.00
2018-06-16T00:26:18.108Z,4.80
2018-06-16T00:28:47.068Z,4.90
2018-06-16T00:31:15.997Z,4.70
2018-06-16T00:33:44.936Z,4.33
2018-06-16T00:36:13.874Z,4.60
2018-06-16T00:38:42.836Z,5.20
2018-06-16T00:41:12.344Z,4.70
2018-06-16T00:43:41.732Z,5.47
2018-06-16T00:46:11.238Z,4.83
2018-06-16T00:48:40.707Z,5.00
2018-06-16T00:51:10.336Z,5.23
2018-06-16T00:53:39.297Z,5.40
2018-06-16T00:56:08.220Z,5.90
2018-06-16T00:58:37.147Z,5.83
2018-06-16T01:01:06.067Z,5.53
2018-06-16T01:03:35.015Z,5.40
2018-06-16T01:06:03.933Z,5.17
2018-06-16T01:08:32.860Z,5.00
2018-06-16T01:11:01.777Z,5.23
2018-06-16T01:13:30.713Z,5.20
2018-06-16T01:15:59.659Z,5.17
2018-06-16T01:18:28.788Z,5.27
2018-06-16T01:20:58.066Z,4.83
2018-06-16T01:23:27.232Z,4.93
2018-06-16T01:25:56.530Z,4.97
2018-06-16T01:28:26.044Z,5.50
2018-06-16T01:30:54.996Z,5.43
2018-06-16T01:33:23.926Z,5.43
2018-06-16T01:35:52.843Z,5.10
2018-06-16T01:38:21.957Z,5.33
2018-06-16T01:40:50.903Z,5.17
2018-06-16T01:43:19.815Z,5.53
2018-06-16T01:45:48.740Z,5.67
2018-06-16T01:48:17.677Z,5.60
2018-06-16T01:50:47.177Z,5.60
2018-06-16T01:53:16.116Z,6.00
2018-06-16T01:55:45.034Z,5.63
2018-06-16T01:58:13.952Z,5.80
2018-06-16T02:00:42.871Z,5.77
2018-06-16T02:03:11.792Z,5.83
2018-06-16T02:05:40.820Z,6.00
2018-06-16T02:08:09.876Z,5.53
2018-06-16T02:10:38.909Z,5.67
2018-06-16T02:13:07.960Z,5.57
2018-06-16T02:15:36.900Z,5.63
2018-06-16T02:18:05.881Z,5.50
2018-06-16T02:20:34.794Z,5.70
2018-06-16T02:23:03.732Z,5.53
2018-06-16T02:25:32.716Z,5.97
2018-06-16T02:28:01.660Z,6.20
2018-06-16T02:30:30.598Z,5.80
2018-06-16T02:32:59.516Z,6.10
2018-06-16T02:35:28.472Z,5.70
2018-06-16T02:37:57.472Z,6.23
2018-06-16T02:40:26.420Z,6.17
2018-06-16T02:42:55.372Z,5.73
2018-06-16T02:45:24.291Z,5.87
2018-06-16T02:47:53.209Z,5.33
2018-06-16T02:50:22.260Z,5.90
2018-06-16T02:52:51.085Z,5.80
2018-06-16T02:55:20.023Z,6.30
2018-06-16T02:57:48.906Z,6.20
2018-06-16T03:00:17.803Z,6.60
2018-06-16T03:02:47.145Z,6.20
2018-06-16T03:05:16.334Z,7.87
2018-06-16T03:07:45.730Z,6.47
2018-06-16T03:10:14.884Z,6.77
2018-06-16T03:12:44.040Z,6.90
2018-06-16T03:15:13.004Z,5.77
2018-06-16T03:17:41.877Z,6.80
2018-06-16T03:20:10.791Z,6.97
2018-06-16T03:22:39.717Z,5.97
2018-06-16T03:25:08.641Z,6.30
2018-06-16T03:27:37.570Z,6.70
2018-06-16T03:30:06.742Z,6.80
2018-06-16T03:32:35.699Z,6.70
2018-06-16T03:35:05.574Z,7.13
2018-06-16T03:37:34.778Z,7.00
2018-06-16T03:40:03.720Z,6.03
2018-06-16T03:42:32.731Z,6.77
2018-06-16T03:45:02.215Z,6.80
2018-06-16T03:47:31.139Z,6.47
2018-06-16T03:50:00.079Z,6.13
2018-06-16T03:52:29.124Z,7.23
2018-06-16T03:54:58.414Z,6.77
2018-06-16T03:57:27.359Z,6.27
2018-06-16T03:59:56.260Z,6.30
2018-06-16T04:02:25.178Z,6.13
2018-06-16T04:04:54.110Z,5.90
2018-06-16T04:07:23.014Z,6.60
2018-06-16T04:09:52.268Z,6.63
2018-06-16T04:12:21.363Z,6.60
2018-06-16T04:14:50.376Z,6.97
2018-06-16T04:17:20.997Z,6.50
2018-06-16T04:19:51.116Z,6.87
2018-06-16T04:22:20.328Z,6.30
2018-06-16T04:24:50.112Z,6.67
2018-06-16T04:27:19.044Z,6.47
2018-06-16T04:29:47.958Z,6.53
2018-06-16T04:32:16.886Z,7.23
2018-06-16T04:34:45.787Z,6.93
2018-06-16T04:37:14.718Z,6.60
2018-06-16T04:39:43.648Z,6.30
2018-06-16T04:42:12.560Z,7.03
2018-06-16T04:44:41.457Z,6.77
2018-06-16T04:47:10.379Z,6.90
2018-06-16T04:49:39.529Z,6.67
2018-06-16T04:52:08.430Z,7.00
2018-06-16T04:54:37.331Z,7.00
2018-06-16T04:57:06.220Z,7.70
2018-06-16T04:59:35.139Z,7.73
2018-06-16T05:02:04.048Z,7.10
2018-06-16T05:04:33.016Z,7.43
2018-06-16T05:07:01.941Z,8.40
2018-06-16T05:09:34.412Z,7.87
2018-06-16T05:12:03.538Z,8.20
2018-06-16T05:14:32.488Z,9.37
2018-06-16T05:17:01.433Z,8.23
2018-06-16T05:19:30.339Z,9.43
2018-06-16T05:21:59.282Z,8.83
2018-06-16T05:24:28.205Z,9.77
2018-06-16T05:26:57.156Z,9.60
2018-06-16T05:29:26.062Z,10.93
2018-06-16T05:31:54.977Z,10.33
2018-06-16T05:34:23.883Z,11.27
2018-06-16T05:36:52.791Z,10.80
2018-06-16T05:39:22.410Z,11.03
2018-06-16T05:41:51.388Z,11.23
2018-06-16T05:44:20.325Z,11.93
2018-06-16T05:46:49.261Z,12.30
2018-06-16T05:49:18.206Z,11.83
2018-06-16T05:51:47.139Z,14.50
2018-06-16T05:54:16.088Z,13.43
2018-06-16T05:56:44.986Z,14.30
2018-06-16T05:59:13.949Z,13.93
2018-06-16T06:01:42.859Z,15.17
2018-06-16T06:04:11.805Z,17.33
2018-06-16T06:06:44.102Z,16.87
2018-06-16T06:09:13.141Z,16.70
2018-06-16T06:11:42.049Z,16.83
2018-06-16T06:14:11.143Z,17.47
2018-06-16T06:16:40.458Z,17.50
2018-06-16T06:19:09.379Z,16.70
2018-06-16T06:21:38.299Z,16.03
2018-06-16T06:24:07.563Z,17.90
2018-06-16T06:26:36.501Z,19.23
2018-06-16T06:29:05.419Z,18.07
2018-06-16T06:31:40.133Z,17.77
2018-06-16T06:34:09.038Z,20.03
2018-06-16T06:36:41.332Z,20.47
2018-06-16T06:39:10.810Z,20.20
2018-06-16T06:41:39.819Z,20.10
2018-06-16T06:44:08.823Z,19.90
2018-06-16T06:46:37.769Z,19.53
2018-06-16T06:49:06.789Z,21.00
2018-06-16T06:51:35.699Z,21.00
2018-06-16T06:54:04.716Z,19.70
2018-06-16T06:56:34.300Z,21.90
2018-06-16T06:59:03.274Z,21.97
2018-06-16T07:01:32.265Z,21.00
2018-06-16T07:04:01.182Z,21.23
2018-06-16T07:06:30.079Z,21.17
2018-06-16T07:08:59.010Z,22.23
2018-06-16T07:11:27.938Z,23.17
2018-06-16T07:13:56.845Z,21.70
2018-06-16T07:16:25.785Z,22.03
2018-06-16T07:18:54.697Z,22.73
2018-06-16T07:21:23.641Z,22.10
2018-06-16T07:23:52.542Z,23.10
2018-06-16T07:26:21.463Z,18.30
2018-06-16T07:28:50.422Z,20.00
2018-06-16T07:31:19.369Z,23.00
2018-06-16T07:33:48.302Z,20.77
2018-06-16T07:36:17.264Z,22.50
2018-06-16T07:38:46.188Z,21.80
2018-06-16T07:41:15.120Z,23.57
2018-06-16T07:43:44.041Z,20.90
2018-06-16T07:46:12.974Z,20.50
2018-06-16T07:48:41.915Z,20.13
2018-06-16T07:51:14.200Z,21.27
2018-06-16T07:53:43.153Z,21.70
2018-06-16T07:56:12.047Z,21.73
2018-06-16T07:58:40.948Z,22.73
2018-06-16T08:01:09.878Z,21.03
2018-06-16T08:03:38.863Z,22.23
2018-06-16T08:06:07.950Z,21.93
2018-06-16T08:08:36.924Z,21.27
2018-06-16T08:11:05.834Z,21.37
2018-06-16T08:13:35.547Z,21.60
2018-06-16T08:16:04.469Z,21.93
2018-06-16T08:18:33.386Z,20.10
2018-06-16T08:21:02.330Z,20.83
2018-06-16T08:23:31.235Z,20.20
2018-06-16T08:26:01.289Z,23.23
2018-06-16T08:28:30.394Z,22.13
2018-06-16T08:30:59.312Z,24.13
2018-06-16T08:33:28.238Z,24.07
2018-06-16T08:35:57.158Z,20.13
2018-06-16T08:38:26.276Z,24.20
2018-06-16T08:40:59.051Z,20.23
2018-06-16T08:43:27.962Z,20.83
2018-06-16T08:45:57.309Z,22.90
2018-06-16T08:48:27.420Z,21.57
2018-06-16T08:51:00.554Z,21.33
2018-06-16T08:53:29.455Z,20.17
2018-06-16T08:55:58.436Z,21.33
2018-06-16T08:58:27.379Z,21.00
2018-06-16T09:00:56.324Z,20.83
2018-06-16T09:03:26.249Z,19.93
2018-06-16T09:05:55.166Z,21.17
2018-06-16T09:08:24.106Z,20.20
2018-06-16T09:10:53.019Z,23.03
2018-06-16T09:13:23.030Z,22.73
2018-06-16T09:15:51.948Z,18.17
2018-06-16T09:18:20.888Z,18.67
2018-06-16T09:20:49.822Z,17.87
2018-06-16T09:23:18.744Z,18.70
2018-06-16T09:25:47.664Z,18.13
2018-06-16T09:28:16.576Z,17.90
2018-06-16T09:30:45.516Z,18.57
2018-06-16T09:33:14.469Z,19.10
2018-06-16T09:35:43.406Z,20.30
2018-06-16T09:38:12.371Z,19.53
2018-06-16T09:40:41.344Z,16.87
2018-06-16T09:43:10.307Z,17.67
2018-06-16T09:45:39.215Z,16.60
2018-06-16T09:48:08.174Z,15.37
2018-06-16T09:50:37.044Z,16.80
2018-06-16T09:53:05.986Z,13.27
2018-06-16T09:55:34.931Z,14.97
2018-06-16T09:58:03.883Z,15.60
2018-06-16T10:00:38.036Z,14.73
2018-06-16T10:03:06.990Z,15.03
2018-06-16T10:05:35.918Z,16.00
2018-06-16T10:08:04.834Z,15.33
2018-06-16T10:10:33.758Z,12.30
2018-06-16T10:13:02.861Z,13.00
2018-06-16T10:15:32.701Z,13.93
2018-06-16T10:18:01.703Z,9.07
2018-06-16T10:20:30.616Z,12.03
2018-06-16T10:22:59.558Z,10.60
2018-06-16T10:25:28.489Z,11.80
2018-06-16T10:27:57.420Z,9.77
2018-06-16T10:30:26.346Z,7.60
2018-06-16T10:32:55.980Z,8.00
2018-06-16T10:35:24.890Z,9.07
2018-06-16T10:37:53.777Z,8.07
2018-06-16T10:40:22.721Z,8.40
2018-06-16T10:42:51.607Z,8.37
2018-06-16T10:45:24.177Z,7.90
2018-06-16T10:47:53.102Z,7.70
2018-06-16T10:50:22.014Z,7.30
2018-06-16T10:52:50.940Z,7.63
2018-06-16T10:55:19.874Z,7.90
2018-06-16T10:57:48.779Z,6.30
2018-06-16T11:00:17.736Z,7.03
2018-06-16T11:02:49.861Z,7.70
2018-06-16T11:05:18.751Z,6.43
2018-06-16T11:07:47.684Z,7.37
2018-06-16T11:10:16.613Z,6.80
2018-06-16T11:12:45.537Z,6.67
2018-06-16T11:15:14.427Z,6.40
2018-06-16T11:17:43.398Z,5.80
2018-06-16T11:20:12.318Z,5.40
2018-06-16T11:22:41.240Z,5.30
2018-06-16T11:25:10.190Z,5.20
2018-06-16T11:27:39.106Z,5.77
2018-06-16T11:30:08.378Z,6.30
2018-06-16T11:32:37.565Z,5.50
2018-06-16T11:35:06.856Z,5.27
2018-06-16T11:37:35.886Z,5.20
2018-06-16T11:40:04.810Z,5.27
2018-06-16T11:42:33.736Z,4.60
2018-06-16T11:45:02.643Z,4.50
2018-06-16T11:47:31.787Z,4.93
2018-06-16T11:50:00.678Z,4.60
2018-06-16T11:52:29.570Z,5.07
2018-06-16T11:54:58.487Z,4.77
2018-06-16T11:57:27.379Z,5.13
2018-06-16T11:59:56.428Z,5.43
2018-06-16T12:02:25.366Z,5.70
2018-06-16T12:04:54.332Z,5.23
2018-06-16T12:07:23.244Z,5.47
2018-06-16T12:09:52.139Z,5.30
2018-06-16T12:12:21.285Z,5.10
2018-06-16T12:14:53.400Z,5.33
2018-06-16T12:17:22.394Z,5.17
2018-06-16T12:19:51.351Z,4.60
2018-06-16T12:22:20.246Z,4.17
2018-06-16T12:24:52.764Z,3.83
2018-06-16T12:27:21.688Z,3.70
2018-06-16T12:29:50.608Z,4.67
2018-06-16T12:32:19.528Z,4.17
2018-06-16T12:34:48.415Z,4.03
2018-06-16T12:37:17.395Z,4.20
2018-06-16T12:39:46.318Z,4.30
2018-06-16T12:42:15.271Z,3.80
2018-06-16T12:44:44.171Z,4.30
2018-06-16T12:47:13.090Z,4.77
2018-06-16T12:49:41.994Z,4.70
2018-06-16T12:52:10.893Z,4.30
2018-06-16T12:54:39.995Z,4.83
2018-06-16T12:57:08.937Z,4.37
2018-06-16T12:59:37.826Z,4.97
2018-06-16T13:02:06.748Z,4.23
2018-06-16T13:04:35.640Z,4.40
2018-06-16T13:07:04.575Z,5.10
2018-06-16T13:09:33.497Z,5.00
2018-06-16T13:12:02.424Z,4.63
2018-06-16T13:14:31.320Z,4.10
2018-06-16T13:17:00.234Z,4.57
2018-06-16T13:19:29.146Z,4.40
2018-06-16T13:21:58.235Z,4.57
2018-06-16T13:24:27.134Z,3.80
2018-06-16T13:26:56.074Z,4.10
2018-06-16T13:29:24.995Z,3.70
2018-06-16T13:31:53.940Z,3.60
2018-06-16T13:34:22.893Z,3.90
2018-06-16T13:36:51.774Z,4.10
2018-06-16T13:39:20.884Z,4.53
2018-06-16T13:41:49.832Z,4.20
2018-06-16T13:44:18.729Z,4.43
2018-06-16T13:46:47.671Z,3.87
2018-06-16T13:49:16.625Z,4.60
2018-06-16T13:51:45.894Z,4.27
2018-06-16T13:54:14.827Z,4.40
2018-06-16T13:56:43.765Z,4.30
2018-06-16T13:59:12.680Z,4.07
2018-06-16T14:01:41.590Z,3.80
2018-06-16T14:04:10.505Z,4.10
2018-06-16T14:06:39.646Z,4.27
2018-06-16T14:09:09.818Z,4.27
2018-06-16T14:11:38.750Z,6.00
2018-06-16T14:14:07.683Z,4.37
2018-06-16T14:16:36.590Z,4.30
2018-06-16T14:19:05.491Z,4.30
2018-06-16T14:21:34.379Z,4.53
2018-06-16T14:24:03.291Z,4.00
2018-06-16T14:26:32.230Z,4.40
2018-06-16T14:29:01.195Z,4.43
2018-06-16T14:31:30.145Z,4.77
2018-06-16T14:33:59.418Z,4.50
2018-06-16T14:36:28.340Z,4.47
2018-06-16T14:38:57.262Z,4.70
2018-06-16T14:41:26.183Z,4.73
2018-06-16T14:43:55.311Z,5.27
2018-06-16T14:46:24.645Z,4.20
2018-06-16T14:48:53.801Z,4.10
2018-06-16T14:51:22.707Z,4.00
2018-06-16T14:53:55.178Z,4.50
2018-06-16T14:56:24.136Z,4.50
2018-06-16T14:58:53.057Z,4.10
2018-06-16T15:01:21.955Z,4.33
2018-06-16T15:03:50.925Z,4.67
2018-06-16T15:06:19.842Z,3.83
2018-06-16T15:08:48.734Z,4.40
2018-06-16T15:11:19.652Z,4.30
2018-06-16T15:13:48.611Z,4.50
2018-06-16T15:16:17.584Z,4.20
2018-06-16T15:18:46.502Z,3.93
2018-06-16T15:21:15.422Z,4.40
2018-06-16T15:23:44.347Z,4.27
2018-06-16T15:26:13.252Z,4.43
2018-06-16T15:28:42.174Z,4.30
2018-06-16T15:31:12.065Z,4.23
2018-06-16T15:33:41.278Z,4.20
2018-06-16T15:36:10.478Z,4.47
2018-06-16T15:38:39.390Z,4.33
2018-06-16T15:41:08.454Z,3.97
2018-06-16T15:43:37.355Z,4.03
2018-06-16T15:46:06.327Z,4.13
2018-06-16T15:48:35.482Z,4.27
2018-06-16T15:51:04.436Z,4.30
2018-06-16T15:53:33.346Z,4.03
2018-06-16T15:56:02.239Z,4.60
2018-06-16T15:58:34.797Z,3.87
2018-06-16T16:01:03.679Z,3.90
2018-06-16T16:03:32.603Z,3.93
2018-06-16T16:06:02.512Z,4.03
2018-06-16T16:08:31.459Z,4.20
2018-06-16T16:11:00.370Z,3.63
2018-06-16T16:13:29.385Z,4.03
2018-06-16T16:15:58.521Z,3.83
2018-06-16T16:18:27.429Z,3.77
2018-06-16T16:20:56.361Z,3.50
2018-06-16T16:23:25.356Z,3.13
2018-06-16T16:25:54.329Z,3.00
2018-06-16T16:28:23.218Z,3.67
2018-06-16T16:30:52.133Z,3.20
2018-06-16T16:33:21.042Z,3.73
2018-06-16T16:35:50.436Z,4.00
2018-06-16T16:38:19.661Z,4.03
2018-06-16T16:40:48.588Z,4.70
2018-06-16T16:43:17.523Z,4.70
2018-06-16T16:45:46.410Z,4.57
2018-06-16T16:48:15.373Z,4.70
2018-06-16T16:50:44.278Z,5.10
2018-06-16T16:53:13.198Z,5.37
2018-06-16T16:55:42.133Z,6.43
2018-06-16T16:58:11.090Z,6.60
2018-06-16T17:00:40.023Z,7.57
2018-06-16T17:03:08.967Z,9.57
2018-06-16T17:05:37.860Z,8.50
2018-06-16T17:08:06.782Z,7.47
2018-06-16T17:10:35.695Z,7.00
2018-06-16T17:13:04.641Z,7.07
2018-06-16T17:15:33.560Z,8.00
2018-06-16T17:18:02.475Z,8.50
2018-06-16T17:20:31.383Z,8.00
2018-06-16T17:23:00.283Z,8.90
2018-06-16T17:25:29.203Z,7.77
2018-06-16T17:27:58.160Z,8.73
2018-06-16T17:30:27.079Z,8.20
2018-06-16T17:32:55.983Z,8.07
2018-06-16T17:35:24.941Z,8.03
2018-06-16T17:37:53.901Z,8.90
2018-06-16T17:40:22.841Z,8.50
2018-06-16T17:42:51.785Z,9.57
2018-06-16T17:45:20.681Z,8.30
2018-06-16T17:47:49.628Z,9.10
2018-06-16T17:50:18.680Z,8.63
2018-06-16T17:52:47.726Z,8.70
2018-06-16T17:55:16.630Z,9.17
2018-06-16T17:57:45.585Z,8.70
2018-06-16T18:00:14.510Z,9.50
2018-06-16T18:02:43.458Z,9.53
2018-06-16T18:05:12.557Z,9.03
2018-06-16T18:07:41.465Z,8.90
2018-06-16T18:10:10.381Z,9.13
2018-06-16T18:12:39.282Z,9.13
2018-06-16T18:15:08.231Z,9.80
2018-06-16T18:17:37.482Z,8.87
2018-06-16T18:20:06.400Z,9.60
2018-06-16T18:22:35.784Z,9.10
2018-06-16T18:25:08.199Z,11.20
2018-06-16T18:27:37.137Z,11.60
2018-06-16T18:30:06.079Z,11.80
2018-06-16T18:32:34.972Z,11.80
2018-06-16T18:35:03.970Z,11.03
2018-06-16T18:37:32.940Z,11.17
2018-06-16T18:40:01.911Z,11.70
2018-06-16T18:42:30.881Z,11.40
2018-06-16T18:44:59.994Z,10.10
2018-06-16T18:47:28.926Z,8.80
2018-06-16T18:49:57.842Z,8.60
2018-06-16T18:52:26.754Z,8.90
2018-06-16T18:54:55.682Z,8.53
2018-06-16T18:57:24.702Z,9.40
2018-06-16T18:59:53.608Z,9.10
2018-06-16T19:02:22.519Z,9.00
2018-06-16T19:04:51.437Z,9.37
2018-06-16T19:07:20.378Z,9.63
2018-06-16T19:09:49.313Z,9.37
2018-06-16T19:12:18.224Z,9.77
2018-06-16T19:14:47.411Z,9.30
2018-06-16T19:17:16.614Z,11.13
2018-06-16T19:19:46.026Z,9.90
2018-06-16T19:22:15.763Z,11.00
2018-06-16T19:24:48.673Z,11.03
2018-06-16T19:27:17.605Z,11.70
2018-06-16T19:29:46.546Z,11.43
2018-06-16T19:32:15.514Z,11.03
2018-06-16T19:34:44.436Z,11.70
2018-06-16T19:37:13.405Z,12.00
2018-06-16T19:39:42.336Z,11.83
2018-06-16T19:42:11.280Z,13.07
2018-06-16T19:44:40.206Z,13.27
2018-06-16T19:47:09.108Z,11.97
2018-06-16T19:49:38.046Z,13.83
2018-06-16T19:52:07.106Z,13.03
2018-06-16T19:54:36.021Z,12.90
2018-06-16T19:57:05.009Z,12.73
2018-06-16T19:59:34.053Z,13.43
2018-06-16T20:02:03.071Z,13.10
2018-06-16T20:04:31.929Z,12.93
2018-06-16T20:07:04.432Z,13.07
2018-06-16T20:09:33.354Z,13.93
2018-06-16T20:12:02.274Z,13.80
2018-06-16T20:14:31.194Z,14.63
2018-06-16T20:17:00.100Z,14.30
2018-06-16T20:19:29.132Z,15.03
2018-06-16T20:21:58.266Z,14.90
2018-06-16T20:24:27.276Z,14.37
2018-06-16T20:26:56.203Z,14.90
2018-06-16T20:29:25.109Z,15.07
2018-06-16T20:31:54.108Z,14.70
2018-06-16T20:34:23.032Z,15.43
2018-06-16T20:36:51.950Z,15.20
2018-06-16T20:39:21.230Z,15.03
2018-06-16T20:41:50.131Z,22.43
2018-06-16T20:44:19.060Z,15.07
2018-06-16T20:46:47.983Z,13.63
2018-06-16T20:49:17.087Z,13.80
2018-06-16T20:51:46.027Z,13.07
2018-06-16T20:54:16.052Z,12.43
2018-06-16T20:56:45.011Z,12.47
2018-06-16T20:59:13.920Z,11.27
2018-06-16T21:01:43.147Z,11.13
2018-06-16T21:04:12.092Z,11.20
2018-06-16T21:06:41.026Z,11.67
2018-06-16T21:09:11.354Z,11.70
2018-06-16T21:11:40.387Z,11.50
2018-06-16T21:14:09.373Z,11.90
2018-06-16T21:16:38.290Z,11.13
2018-06-16T21:19:07.443Z,11.77
2018-06-16T21:21:36.790Z,11.47
2018-06-16T21:24:05.877Z,11.23
2018-06-16T21:26:34.980Z,10.23
2018-06-16T21:29:04.019Z,10.83
2018-06-16T21:31:32.929Z,10.67
2018-06-16T21:34:01.871Z,11.90
2018-06-16T21:36:30.784Z,11.33
2018-06-16T21:38:59.814Z,10.63
2018-06-16T21:41:28.734Z,10.23
2018-06-16T21:43:57.695Z,10.37
2018-06-16T21:46:26.617Z,10.23
2018-06-16T21:48:55.715Z,11.83
2018-06-16T21:51:24.653Z,11.20
2018-06-16T21:53:53.648Z,11.77
2018-06-16T21:56:22.619Z,12.30
2018-06-16T21:58:51.571Z,11.07
2018-06-16T22:01:20.538Z,11.43
2018-06-16T22:03:49.460Z,11.80
2018-06-16T22:06:18.382Z,11.27
2018-06-16T22:08:47.367Z,12.27
2018-06-16T22:11:16.373Z,12.07
2018-06-16T22:13:46.170Z,10.77
2018-06-16T22:16:15.124Z,11.23
2018-06-16T22:18:44.036Z,11.73
2018-06-16T22:21:12.958Z,12.40
2018-06-16T22:23:41.951Z,12.13
2018-06-16T22:26:10.878Z,11.80
2018-06-16T22:28:39.956Z,11.73
2018-06-16T22:31:08.929Z,12.20
2018-06-16T22:33:37.849Z,11.07
2018-06-16T22:36:06.900Z,12.37
2018-06-16T22:38:35.817Z,11.80
2018-06-16T22:41:04.793Z,12.13
2018-06-16T22:43:33.741Z,11.93
2018-06-16T22:46:02.644Z,11.77
2018-06-16T22:48:31.832Z,11.33
2018-06-16T22:51:00.749Z,12.23
2018-06-16T22:53:29.688Z,11.37
2018-06-16T22:55:58.662Z,12.07
2018-06-16T22:58:27.563Z,11.20
2018-06-16T23:00:56.494Z,11.63
2018-06-16T23:03:25.424Z,12.37
2018-06-16T23:05:54.582Z,11.20
2018-06-16T23:08:23.529Z,11.47
2018-06-16T23:10:52.448Z,11.30
2018-06-16T23:13:21.397Z,11.20
2018-06-16T23:15:50.352Z,10.93
2018-06-16T23:18:19.594Z,11.80
2018-06-16T23:20:48.844Z,13.20
2018-06-16T23:23:18.055Z,12.27
2018-06-16T23:25:47.035Z,12.13
2018-06-16T23:28:15.952Z,12.67
2018-06-16T23:30:44.904Z,12.53
2018-06-16T23:33:13.834Z,11.80
2018-06-16T23:35:42.775Z,12.83
2018-06-16T23:38:11.840Z,12.77
2018-06-16T23:40:40.744Z,10.33
2018-06-16T23:43:09.750Z,10.77
2018-06-16T23:45:38.664Z,8.53
2018-06-16T23:48:07.625Z,7.73
2018-06-16T23:50:36.547Z,8.17
2018-06-16T23:53:05.486Z,8.80
2018-06-16T23:55:34.836Z,7.20
2018-06-16T23:58:04.113Z,6.47
